Time;durP1;ratioP1;P1;durP2;ratioP2;P2;SDS_P1;SDS_P2;PMS_P1;PMS_P2;Temp;Humidity;BMP_temperature;BMP_pressure;BME280_temperature;BME280_humidity;BME280_pressure;Samples;Min_cycle;Max_cycle;Signal;HPM_P1;HPM_P2
2024/02/09 00:00:40;;;;;;;6.22;2.97;;;;;;;9.47;59.31;98561.56;5023418;28;20037;-71
2024/02/09 00:03:11;;;;;;;9.18;3.17;;;;;;;9.48;59.13;98556.97;5004124;28;20059;-72
2024/02/09 00:05:39;;;;;;;7.30;2.90;;;;;;;9.46;59.44;98562.59;5032872;28;20041;-72
2024/02/09 00:08:07;;;;;;;5.53;2.80;;;;;;;9.48;58.91;98559.69;5051230;28;20040;-71
2024/02/09 00:10:37;;;;;;;8.80;2.83;;;;;;;9.47;59.11;98553.38;5051163;28;20065;-74
2024/02/09 00:13:12;;;;;;;6.32;2.80;;;;;;;9.46;58.91;98558.00;5052519;28;20091;-74
2024/02/09 00:15:42;;;;;;;9.23;3.28;;;;;;;9.46;59.12;98554.41;5022353;28;20463;-74
2024/02/09 00:18:11;;;;;;;5.88;2.72;;;;;;;9.48;59.40;98549.63;5044703;28;20546;-72
2024/02/09 00:20:39;;;;;;;7.72;3.38;;;;;;;9.46;58.98;98552.53;5054802;28;20045;-73
2024/02/09 00:23:08;;;;;;;6.32;2.50;;;;;;;9.46;59.30;98541.59;5032965;28;20054;-72
2024/02/09 00:25:37;;;;;;;8.38;3.40;;;;;;;9.47;59.45;98537.00;5051189;28;20045;-72
2024/02/09 00:28:05;;;;;;;7.25;2.85;;;;;;;9.48;58.92;98540.59;5051750;28;20094;-73
2024/02/09 00:30:38;;;;;;;7.15;3.30;;;;;;;9.47;59.60;98531.53;5039415;28;20033;-72
2024/02/09 00:33:08;;;;;;;6.40;2.35;;;;;;;9.46;59.22;98519.78;5050060;28;20064;-72
2024/02/09 00:35:39;;;;;;;7.22;2.95;;;;;;;9.50;59.59;98520.22;5048670;28;20044;-72
2024/02/09 00:38:09;;;;;;;9.13;3.08;;;;;;;9.49;59.34;98526.75;5041800;28;20044;-72
2024/02/09 00:40:38;;;;;;;7.32;2.95;;;;;;;9.50;59.39;98522.09;5055115;28;20041;-72
2024/02/09 00:43:07;;;;;;;8.52;3.25;;;;;;;9.50;59.46;98511.19;5032112;28;20099;-72
2024/02/09 00:45:35;;;;;;;7.95;3.28;;;;;;;9.51;59.39;98504.69;5048233;28;20124;-72
2024/02/09 00:48:04;;;;;;;6.15;2.88;;;;;;;9.51;59.18;98505.56;5050022;28;20053;-72
2024/02/09 00:50:32;;;;;;;7.18;2.70;;;;;;;9.51;59.53;98505.56;5050389;28;20041;-72
2024/02/09 00:53:04;;;;;;;7.17;2.80;;;;;;;9.53;59.58;98497.19;4996430;23;1156923;-73
2024/02/09 00:55:32;;;;;;;6.40;3.05;;;;;;;9.51;59.16;98493.78;5023244;28;20041;-73
2024/02/09 00:58:00;;;;;;;9.77;3.30;;;;;;;9.53;59.62;98494.44;5015247;28;20483;-73
2024/02/09 01:00:30;;;;;;;6.00;2.88;;;;;;;9.53;59.44;98489.84;5030962;28;20049;-74
2024/02/09 01:02:59;;;;;;;6.93;2.50;;;;;;;9.54;59.33;98485.22;5026974;28;20050;-73
2024/02/09 01:05:28;;;;;;;7.13;2.83;;;;;;;9.53;59.07;98480.78;5013020;28;20037;-74
2024/02/09 01:07:57;;;;;;;9.63;2.92;;;;;;;9.54;59.36;98463.38;5032618;28;20072;-73
2024/02/09 01:10:26;;;;;;;7.30;3.00;;;;;;;9.55;59.58;98462.34;5017713;28;20447;-73
2024/02/09 02:46:33;;;;;;;8.75;2.78;;;;;;;9.41;59.31;98325.63;5027824;28;20046;-74
2024/02/09 03:05:34;;;;;;;7.68;3.03;;;;;;;9.43;59.34;98290.81;4975116;28;20045;-74
2024/02/09 03:08:02;;;;;;;7.00;2.95;;;;;;;9.43;58.96;98292.69;5008237;28;20504;-74
2024/02/09 03:10:51;;;;;;;7.30;2.85;;;;;;;9.43;59.23;98284.50;5021867;28;20064;-74
2024/02/09 03:13:21;;;;;;;6.10;3.20;;;;;;;9.43;58.94;98285.34;5024404;28;20400;-74
2024/02/09 03:15:52;;;;;;;7.50;3.10;;;;;;;9.45;59.27;98285.16;5007085;28;20408;-74
2024/02/09 03:18:24;;;;;;;5.30;2.80;;;;;;;9.43;58.88;98273.56;5031104;28;20049;-74
2024/02/09 03:20:55;;;;;;;8.52;3.60;;;;;;;9.45;58.99;98276.97;5023023;28;20074;-74
2024/02/09 03:23:23;;;;;;;7.85;3.35;;;;;;;9.46;59.13;98273.22;5023038;28;20081;-74
2024/02/09 03:25:52;;;;;;;7.38;3.22;;;;;;;9.46;59.26;98268.59;5011703;28;20053;-74
2024/02/09 03:28:20;;;;;;;6.85;3.40;;;;;;;9.47;59.12;98266.72;5032240;28;20055;-75
2024/02/09 03:30:47;;;;;;;6.15;2.67;;;;;;;9.46;59.18;98260.41;4999673;28;20464;-74
2024/02/09 03:33:15;;;;;;;8.30;3.05;;;;;;;9.46;59.39;98262.28;5011949;28;20053;-74
2024/02/09 03:35:43;;;;;;;6.35;3.08;;;;;;;9.45;59.07;98264.16;5019332;28;20052;-75
2024/02/09 03:38:13;;;;;;;7.60;3.50;;;;;;;9.48;59.24;98268.41;5026247;28;20700;-74
2024/02/09 03:40:42;;;;;;;6.28;2.88;;;;;;;9.47;59.14;98263.97;5022776;28;20073;-74
2024/02/09 03:43:10;;;;;;;6.85;2.90;;;;;;;9.45;59.19;98271.50;5029250;28;20048;-74
2024/02/09 03:45:41;;;;;;;6.20;2.75;;;;;;;9.46;59.28;98267.75;5008367;28;20067;-74
2024/02/09 03:48:10;;;;;;;6.50;3.00;;;;;;;9.45;58.78;98257.84;5004499;28;20050;-74
2024/02/09 03:50:38;;;;;;;6.13;2.63;;;;;;;9.44;58.94;98259.75;5028961;28;20041;-74
2024/02/09 03:53:06;;;;;;;7.30;2.45;;;;;;;9.45;58.71;98263.31;5021408;28;20046;-74
2024/02/09 03:55:40;;;;;;;7.72;2.97;;;;;;;9.44;58.99;98276.13;5025564;28;20069;-74
2024/02/09 03:58:09;;;;;;;7.10;2.80;;;;;;;9.44;59.23;98270.66;5011140;28;20053;-74
2024/02/09 04:00:36;;;;;;;5.53;2.53;;;;;;;9.45;58.98;98271.50;4999166;28;20132;-74
2024/02/09 04:03:05;;;;;;;7.20;2.30;;;;;;;9.45;59.30;98266.06;5015708;28;20045;-75
2024/02/09 04:05:33;;;;;;;5.50;2.85;;;;;;;9.44;59.22;98258.91;5007927;28;20124;-74
2024/02/09 04:08:03;;;;;;;6.93;2.35;;;;;;;9.44;59.09;98264.34;5002848;28;20437;-75
2024/02/09 04:10:31;;;;;;;6.03;2.40;;;;;;;9.43;59.04;98262.66;5024622;28;20042;-74
2024/02/09 04:13:13;;;;;;;5.35;2.70;;;;;;;9.44;59.20;98247.97;5036502;28;20051;-74
2024/02/09 04:15:41;;;;;;;5.45;2.30;;;;;;;9.42;59.11;98245.44;5026759;28;20061;-74
2024/02/09 04:18:09;;;;;;;4.85;2.28;;;;;;;9.43;59.14;98258.03;5013190;28;20052;-74
2024/02/09 04:20:38;;;;;;;4.82;2.22;;;;;;;9.42;59.11;98250.88;5012947;28;20045;-74
2024/02/09 04:23:07;;;;;;;3.80;2.08;;;;;;;9.42;58.86;98255.50;5026062;28;20073;-74
2024/02/09 04:25:36;;;;;;;4.68;2.20;;;;;;;9.42;58.81;98263.69;5025667;28;20057;-74
2024/02/09 04:28:05;;;;;;;4.60;2.10;;;;;;;9.42;59.37;98259.06;5011567;28;20058;-74
2024/02/09 04:30:34;;;;;;;7.05;2.15;;;;;;;9.43;59.00;98251.75;5011054;28;20076;-74
2024/02/09 04:33:02;;;;;;;4.35;2.00;;;;;;;9.41;58.95;98245.66;4998987;28;20153;-74
2024/02/09 04:35:30;;;;;;;4.47;1.90;;;;;;;9.41;58.89;98251.91;5027532;28;20493;-74
2024/02/09 04:37:59;;;;;;;5.80;2.25;;;;;;;9.41;58.96;98232.00;5026905;28;20050;-74
2024/02/09 04:40:28;;;;;;;4.35;1.98;;;;;;;9.41;58.94;98242.91;5030887;28;20573;-74
2024/02/09 04:42:55;;;;;;;5.30;2.30;;;;;;;9.41;58.92;98249.19;5024617;28;20512;-74
2024/02/09 04:45:23;;;;;;;4.50;1.85;;;;;;;9.40;59.12;98236.59;5023972;28;20574;-74
2024/02/09 04:47:53;;;;;;;4.68;1.92;;;;;;;9.41;59.04;98235.53;5015692;28;20123;-74
2024/02/09 04:50:22;;;;;;;4.70;1.70;;;;;;;9.39;59.21;98232.19;5025262;28;20092;-74
2024/02/09 04:52:50;;;;;;;3.85;1.83;;;;;;;9.39;59.02;98229.44;5000905;28;20408;-74
2024/02/09 04:55:18;;;;;;;5.07;1.75;;;;;;;9.39;59.08;98225.88;5019362;28;20041;-74
2024/02/09 04:57:47;;;;;;;5.35;2.05;;;;;;;9.40;58.81;98230.31;5019401;28;20045;-74
2024/02/09 05:00:15;;;;;;;4.80;2.00;;;;;;;9.40;58.79;98222.09;5031024;28;20124;-75
2024/02/09 05:02:45;;;;;;;4.85;1.95;;;;;;;9.40;59.14;98224.84;5026094;28;20048;-74
2024/02/09 05:05:14;;;;;;;4.78;2.15;;;;;;;9.40;58.90;98222.97;5016657;28;20050;-74
2024/02/09 05:07:42;;;;;;;3.42;1.70;;;;;;;9.39;58.83;98231.34;5002917;28;20575;-73
2024/02/09 05:10:12;;;;;;;3.90;1.75;;;;;;;9.40;59.23;98225.69;5019704;28;20080;-73
2024/02/09 05:12:40;;;;;;;5.03;1.73;;;;;;;9.39;59.17;98232.19;5024897;28;20045;-73
2024/02/09 05:15:08;;;;;;;3.75;1.85;;;;;;;9.40;58.98;98225.69;5023957;28;20415;-73
2024/02/09 05:17:38;;;;;;;4.25;1.90;;;;;;;9.40;59.25;98233.88;5026260;28;20532;-74
2024/02/09 05:20:07;;;;;;;4.72;1.60;;;;;;;9.40;59.16;98224.84;5008763;28;20593;-75
2024/02/09 05:22:36;;;;;;;5.40;1.90;;;;;;;9.40;59.26;98228.41;5023591;28;20097;-74
2024/02/09 05:25:05;;;;;;;5.70;2.25;;;;;;;9.41;59.09;98215.63;5021714;28;20038;-74
2024/02/09 05:27:34;;;;;;;3.85;1.90;;;;;;;9.39;59.33;98213.06;5022611;28;20061;-74
2024/02/09 05:30:02;;;;;;;4.95;2.13;;;;;;;9.41;59.15;98215.63;5025256;28;20120;-73
2024/02/09 05:32:32;;;;;;;4.32;2.00;;;;;;;9.41;59.22;98210.16;5020282;28;20121;-73
2024/02/09 05:35:00;;;;;;;4.80;2.10;;;;;;;9.40;59.47;98217.50;5012466;28;20073;-74
2024/02/09 05:37:28;;;;;;;5.95;2.03;;;;;;;9.41;59.13;98218.34;5024219;28;20061;-73
2024/02/09 05:39:57;;;;;;;5.55;2.20;;;;;;;9.42;59.33;98217.28;5017413;28;20050;-73
2024/02/09 05:42:26;;;;;;;4.30;2.05;;;;;;;9.41;59.11;98208.25;5022135;28;20045;-73
2024/02/09 05:44:54;;;;;;;5.68;1.90;;;;;;;9.40;58.99;98208.47;5022437;28;20045;-73
2024/02/09 05:47:22;;;;;;;4.15;2.00;;;;;;;9.40;58.75;98209.31;5008945;28;20450;-73
2024/02/09 05:49:51;;;;;;;4.07;2.03;;;;;;;9.42;59.12;98206.34;5014658;28;20077;-73
2024/02/09 05:52:19;;;;;;;3.88;1.90;;;;;;;9.41;58.84;98205.50;5028412;28;20060;-73
2024/02/09 05:54:47;;;;;;;5.03;2.08;;;;;;;9.42;59.18;98206.34;5008335;28;20548;-73
2024/02/09 05:57:16;;;;;;;4.85;2.30;;;;;;;9.43;59.48;98203.44;4997476;28;20452;-73
2024/02/09 05:59:45;;;;;;;3.45;1.80;;;;;;;9.43;59.22;98199.88;5026177;28;20458;-73
2024/02/09 06:02:13;;;;;;;3.47;1.75;;;;;;;9.43;58.99;98205.31;5015888;28;20042;-73
2024/02/09 06:04:41;;;;;;;4.22;1.92;;;;;;;9.44;58.92;98201.56;5015913;28;20092;-74
2024/02/09 06:07:09;;;;;;;4.28;1.90;;;;;;;9.44;58.99;98198.84;5023936;28;20047;-73
2024/02/09 06:09:37;;;;;;;3.78;1.77;;;;;;;9.44;58.77;98199.69;5001228;28;20156;-73
2024/02/09 06:12:06;;;;;;;3.75;1.88;;;;;;;9.45;58.91;98201.38;5007673;28;20072;-73
2024/02/09 06:14:35;;;;;;;4.35;1.70;;;;;;;9.46;58.92;98196.75;5023309;28;20576;-73
2024/02/09 06:17:04;;;;;;;3.35;1.50;;;;;;;9.46;59.34;98188.56;5017406;28;20049;-73
2024/02/09 06:19:32;;;;;;;3.20;1.60;;;;;;;9.47;59.03;98193.00;5003771;28;20492;-73
2024/02/09 06:22:00;;;;;;;3.28;1.55;;;;;;;9.47;59.21;98190.28;5023954;28;20505;-73
2024/02/09 06:24:28;;;;;;;3.72;1.35;;;;;;;9.48;58.77;98181.03;5022560;28;20041;-73
2024/02/09 06:26:56;;;;;;;2.75;1.33;;;;;;;9.48;58.81;98178.31;5006779;28;20647;-73
2024/02/09 06:29:24;;;;;;;4.90;1.52;;;;;;;9.49;58.72;98180.00;5020208;28;20525;-73
2024/02/09 06:31:56;;;;;;;3.53;1.40;;;;;;;9.51;58.59;98188.84;5019888;28;20049;-73
2024/02/09 06:34:24;;;;;;;3.17;1.70;;;;;;;9.50;58.89;98181.69;5022589;28;20056;-73
2024/02/09 06:36:53;;;;;;;2.83;1.50;;;;;;;9.50;59.08;98184.41;5020983;28;20504;-73
2024/02/09 06:39:23;;;;;;;3.83;1.80;;;;;;;9.51;59.11;98175.19;5012384;28;20050;-73
2024/02/09 06:41:51;;;;;;;2.80;1.60;;;;;;;9.51;58.78;98180.66;5002478;28;20460;-73
2024/02/09 06:44:19;;;;;;;3.55;1.80;;;;;;;9.51;58.48;98187.97;5027650;28;20045;-73
2024/02/09 06:46:47;;;;;;;3.88;1.73;;;;;;;9.53;58.96;98191.38;5024523;28;20197;-74
2024/02/09 06:49:16;;;;;;;3.53;1.80;;;;;;;9.53;58.91;98194.97;5024504;28;20569;-73
2024/02/09 06:51:45;;;;;;;2.78;1.50;;;;;;;9.53;58.95;98196.84;5018954;28;20034;-73
2024/02/09 06:54:13;;;;;;;3.50;1.48;;;;;;;9.52;58.74;98192.41;5004624;28;20088;-73
2024/02/09 06:56:42;;;;;;;3.42;1.48;;;;;;;9.52;58.71;98190.53;5022550;28;20517;-73
2024/02/09 06:59:10;;;;;;;3.60;1.58;;;;;;;9.53;58.66;98194.09;5001994;28;20045;-73
2024/02/09 07:01:41;;;;;;;3.72;1.55;;;;;;;9.53;58.57;98192.22;5025972;28;20041;-73
2024/02/09 07:04:16;;;;;;;3.50;1.20;;;;;;;9.50;58.76;98195.31;5007676;28;20049;-73
2024/02/09 07:06:47;;;;;;;3.30;1.42;;;;;;;9.54;58.69;98204.00;5027599;28;20601;-73
2024/02/09 07:09:18;;;;;;;3.05;1.50;;;;;;;9.54;58.67;98196.66;5033317;28;20416;-73
2024/02/09 07:12:03;;;;;;;3.97;1.52;;;;;;;9.52;58.44;98190.53;5010842;28;20054;-74
2024/02/09 07:14:32;;;;;;;2.95;1.50;;;;;;;9.53;58.61;98191.38;5021937;28;20041;-73
2024/02/09 07:16:59;;;;;;;2.85;1.30;;;;;;;9.54;58.71;98187.63;5021539;28;20443;-73
2024/02/09 07:19:27;;;;;;;6.70;1.50;;;;;;;9.53;58.93;98189.50;5022281;28;20107;-73
2024/02/09 07:21:57;;;;;;;4.28;1.70;;;;;;;9.56;58.91;98191.00;5007913;28;20046;-73
2024/02/09 07:24:25;;;;;;;3.22;1.45;;;;;;;9.54;58.64;98187.63;5021341;28;20042;-74
2024/02/09 07:26:53;;;;;;;5.03;1.50;;;;;;;9.55;58.34;98186.56;5018401;28;20064;-74
2024/02/09 07:29:22;;;;;;;5.47;1.80;;;;;;;9.54;58.93;98183.00;5021941;28;20061;-74
2024/02/09 07:31:50;;;;;;;2.97;1.50;;;;;;;9.54;58.57;98196.66;5024661;28;20534;-75
2024/02/09 07:34:18;;;;;;;4.43;1.42;;;;;;;9.54;58.58;98196.66;5003990;28;20501;-74
2024/02/09 07:36:47;;;;;;;4.15;2.05;;;;;;;9.54;58.84;98201.25;5029378;28;20037;-75
2024/02/09 07:39:16;;;;;;;2.75;1.60;;;;;;;9.55;58.51;98190.16;5007524;28;20409;-75
2024/02/09 07:41:44;;;;;;;3.35;1.50;;;;;;;9.55;58.73;98202.97;5023178;28;20046;-74
2024/02/09 07:44:12;;;;;;;2.08;1.20;;;;;;;9.54;58.42;98198.53;5003989;28;20140;-74
2024/02/09 07:46:40;;;;;;;3.15;1.48;;;;;;;9.55;58.65;98202.97;5003760;28;20041;-74
2024/02/09 07:49:08;;;;;;;4.15;1.50;;;;;;;9.54;58.77;98204.00;5023358;28;20117;-74
2024/02/09 07:51:36;;;;;;;3.08;1.30;;;;;;;9.53;58.53;98194.97;5019782;28;20345;-74
2024/02/09 07:54:05;;;;;;;3.00;1.70;;;;;;;9.54;58.66;98193.06;5021544;28;20452;-74
2024/02/09 07:56:34;;;;;;;3.75;1.40;;;;;;;9.56;58.96;98188.28;5019541;28;20041;-74
2024/02/09 07:59:03;;;;;;;3.72;1.35;;;;;;;9.54;58.80;98193.91;5014082;28;20343;-74
2024/02/09 08:01:31;;;;;;;3.83;1.50;;;;;;;9.54;58.51;98193.06;5007102;28;20064;-74
2024/02/09 08:03:59;;;;;;;3.67;1.45;;;;;;;9.55;59.07;98194.78;5026120;28;20049;-74
2024/02/09 08:06:28;;;;;;;4.22;1.60;;;;;;;9.56;59.24;98196.47;5024711;28;20296;-74
2024/02/09 08:08:56;;;;;;;3.08;1.40;;;;;;;9.56;58.68;98201.94;5013647;28;20042;-73
2024/02/09 08:11:24;;;;;;;3.05;1.55;;;;;;;9.56;58.89;98197.31;5024669;28;20062;-75
2024/02/09 08:13:54;;;;;;;3.35;1.38;;;;;;;9.59;59.19;98198.78;5031294;28;20033;-74
2024/02/09 08:16:22;;;;;;;3.90;1.80;;;;;;;9.58;58.80;98203.41;5036018;28;20417;-74
2024/02/09 08:18:51;;;;;;;4.47;1.60;;;;;;;9.58;58.71;98210.75;5029286;28;20037;-74
2024/02/09 08:21:20;;;;;;;4.40;1.40;;;;;;;9.59;58.74;98205.09;5036142;28;20050;-74
2024/02/09 08:23:48;;;;;;;4.20;1.67;;;;;;;9.60;59.07;98203.22;5014443;28;20419;-73
2024/02/09 08:26:16;;;;;;;4.57;1.70;;;;;;;9.59;58.87;98202.38;5042004;28;20076;-73
2024/02/09 08:28:47;;;;;;;3.15;1.70;;;;;;;9.62;59.22;98201.16;5027067;28;20124;-73
2024/02/09 08:31:17;;;;;;;3.97;1.60;;;;;;;9.63;59.16;98211.03;5033343;28;20057;-73
2024/02/09 08:33:46;;;;;;;2.53;1.30;;;;;;;9.62;59.06;98214.81;5008778;28;20378;-73
2024/02/09 08:36:17;;;;;;;3.42;1.40;;;;;;;9.61;59.16;98219.41;5032976;28;20397;-73
2024/02/09 08:38:46;;;;;;;4.70;1.67;;;;;;;9.63;58.77;98213.75;5013162;28;20084;-72
2024/02/09 08:41:14;;;;;;;5.10;1.80;;;;;;;9.63;59.09;98216.50;5024946;28;20038;-73
2024/02/09 08:43:42;;;;;;;3.05;1.73;;;;;;;9.64;58.85;98221.78;5013598;28;20189;-73
2024/02/09 08:46:11;;;;;;;4.20;2.03;;;;;;;9.64;59.08;98213.56;5008459;28;20046;-73
2024/02/09 08:48:40;;;;;;;3.60;1.77;;;;;;;9.67;58.90;98215.91;5029164;28;20382;-73
2024/02/09 08:51:08;;;;;;;3.15;1.70;;;;;;;9.67;58.84;98215.06;5017705;28;20049;-73
2024/02/09 08:53:37;;;;;;;3.75;1.70;;;;;;;9.67;58.90;98209.59;5021437;28;20061;-73
2024/02/09 08:56:06;;;;;;;4.22;1.92;;;;;;;9.68;58.83;98201.22;5011537;28;20050;-73
2024/02/09 08:58:34;;;;;;;4.20;2.00;;;;;;;9.69;58.95;98210.25;5021864;28;20120;-73
2024/02/09 09:01:02;;;;;;;3.85;1.70;;;;;;;9.70;59.28;98201.03;5027567;28;20456;-74
2024/02/09 09:03:33;;;;;;;3.45;1.90;;;;;;;9.71;59.33;98205.44;5027933;28;20130;-73
2024/02/09 09:06:04;;;;;;;4.32;1.73;;;;;;;9.74;59.45;98203.16;5003537;28;20046;-73
2024/02/09 09:08:34;;;;;;;5.70;2.10;;;;;;;9.74;59.00;98200.44;5022163;28;20037;-73
2024/02/09 09:11:02;;;;;;;4.53;2.22;;;;;;;9.77;59.04;98207.41;5024332;28;20037;-73
2024/02/09 09:13:30;;;;;;;4.78;1.70;;;;;;;9.78;59.37;98195.44;5026131;28;20068;-73
2024/02/09 09:15:59;;;;;;;3.85;1.85;;;;;;;9.80;58.87;98196.09;5030330;28;20045;-73
2024/02/09 09:18:28;;;;;;;4.38;1.90;;;;;;;9.83;59.46;98191.06;5010531;28;20041;-73
2024/02/09 09:20:56;;;;;;;3.92;1.70;;;;;;;9.83;59.51;98199.28;5025089;28;20537;-73
2024/02/09 09:23:25;;;;;;;3.67;1.63;;;;;;;9.88;59.44;98208.78;5031682;28;20401;-73
2024/02/09 09:25:54;;;;;;;3.97;1.70;;;;;;;9.88;59.02;98193.25;5000870;28;20041;-73
2024/02/09 09:28:22;;;;;;;3.85;1.88;;;;;;;9.91;59.06;98201.03;5010087;28;20453;-75
2024/02/09 09:30:50;;;;;;;3.63;1.67;;;;;;;9.92;59.08;98202.72;5024158;28;20044;-75
2024/02/09 09:33:17;;;;;;;3.10;1.48;;;;;;;9.94;59.01;98200.66;5022119;28;20046;-75
2024/02/09 09:35:45;;;;;;;2.72;1.55;;;;;;;9.96;59.18;98206.78;5008656;28;20112;-75
2024/02/09 09:38:18;;;;;;;;;;;;;;;9.74;59.95;98205.91;5022402;28;20504;-75
2024/02/09 09:40:53;;;;;;;2.47;1.30;;;;;;;9.98;59.50;98209.31;5002728;28;19925;-74
2024/02/09 09:43:24;;;;;;;3.30;1.40;;;;;;;10.02;59.04;98213.34;5022537;28;20037;-75
2024/02/09 09:45:56;;;;;;;4.80;1.90;;;;;;;10.05;58.76;98213.81;5020055;28;20041;-75
2024/02/09 09:48:27;;;;;;;3.08;1.35;;;;;;;10.07;59.27;98214.44;5009762;28;20519;-75
2024/02/09 09:50:56;;;;;;;4.47;1.65;;;;;;;10.10;59.10;98207.72;5035967;28;20046;-75
2024/02/09 09:53:28;;;;;;;4.13;1.50;;;;;;;10.12;59.01;98211.13;5011004;28;20093;-73
2024/02/09 09:55:59;;;;;;;4.75;2.05;;;;;;;10.13;58.96;98215.56;5020823;28;20420;-74
2024/02/09 09:58:28;;;;;;;3.25;1.33;;;;;;;10.14;59.28;98198.97;5007896;28;20073;-74
2024/02/09 10:00:57;;;;;;;4.07;1.70;;;;;;;10.18;58.83;98215.81;5020883;28;20464;-74
2024/02/09 10:03:27;;;;;;;3.53;1.85;;;;;;;10.21;58.76;98221.75;5005782;28;20576;-74
2024/02/09 10:05:55;;;;;;;4.68;1.60;;;;;;;10.22;59.22;98217.97;5021469;28;20091;-74
2024/02/09 10:08:24;;;;;;;3.13;1.60;;;;;;;10.24;58.81;98218.59;5002069;28;20040;-73
2024/02/09 10:10:55;;;;;;;2.97;1.40;;;;;;;10.28;59.09;98216.31;5018781;28;20045;-74
2024/02/09 10:13:26;;;;;;;3.00;1.40;;;;;;;10.31;58.82;98226.03;5034977;28;20106;-74
2024/02/09 10:15:57;;;;;;;3.60;1.50;;;;;;;10.32;58.61;98225.00;5026242;28;20068;-74
2024/02/09 10:18:25;;;;;;;2.88;1.48;;;;;;;10.34;58.51;98231.94;5020639;28;20033;-74
2024/02/09 10:20:53;;;;;;;3.55;1.40;;;;;;;10.35;59.03;98230.88;5012561;28;20072;-74
2024/02/09 10:23:21;;;;;;;4.15;1.55;;;;;;;10.38;58.49;98230.50;5019877;28;20126;-74
2024/02/09 10:25:49;;;;;;;2.75;1.70;;;;;;;10.40;58.91;98244.81;5001751;28;20038;-74
2024/02/09 10:28:18;;;;;;;2.13;1.17;;;;;;;10.43;58.68;98240.84;5006251;28;20528;-74
2024/02/09 10:30:52;;;;;;;4.85;1.52;;;;;;;10.44;58.33;98246.13;5015671;28;20042;-74
2024/02/09 10:33:22;;;;;;;2.35;1.30;;;;;;;10.45;58.75;98239.59;5002735;28;20056;-74
2024/02/09 10:35:53;;;;;;;3.67;1.38;;;;;;;10.47;58.38;98250.34;5013617;28;20034;-74
2024/02/09 10:38:22;;;;;;;3.08;1.30;;;;;;;10.48;58.20;98246.59;5028058;28;20409;-74
2024/02/09 10:40:54;;;;;;;2.80;1.33;;;;;;;10.52;58.66;98239.66;5016658;28;20116;-75
2024/02/09 10:43:23;;;;;;;;;;;;;;;10.27;58.93;98252.06;5027058;28;20136;-74
2024/02/09 10:45:53;;;;;;;2.97;1.30;;;;;;;10.50;58.87;98245.31;5022846;28;19932;-74
2024/02/09 10:48:35;;;;;;;4.32;1.60;;;;;;;10.56;58.38;98235.53;5006834;28;20042;-75
2024/02/09 10:51:02;;;;;;;4.38;1.90;;;;;;;10.56;58.28;98232.81;5019839;28;20498;-75
2024/02/09 10:53:33;;;;;;;4.63;1.85;;;;;;;10.58;58.32;98234.28;5012008;28;20458;-75
2024/02/09 10:56:03;;;;;;;4.22;1.70;;;;;;;10.59;58.29;98241.44;5017681;28;20061;-75
2024/02/09 10:58:33;;;;;;;4.22;1.52;;;;;;;10.60;58.67;98237.66;5028667;28;20049;-75
2024/02/09 11:01:04;;;;;;;3.00;1.35;;;;;;;10.60;58.22;98237.66;5021647;28;20054;-75
2024/02/09 11:03:33;;;;;;;3.78;1.48;;;;;;;10.60;58.25;98243.13;5020447;28;20064;-74
2024/02/09 11:06:04;;;;;;;3.00;1.38;;;;;;;10.62;58.23;98240.19;5001317;28;20040;-74
2024/02/09 11:08:34;;;;;;;3.28;1.30;;;;;;;10.62;58.75;98247.56;5004494;28;20041;-74
2024/02/09 11:11:02;;;;;;;3.42;1.40;;;;;;;10.63;58.53;98258.31;5020793;28;20048;-73
2024/02/09 11:13:30;;;;;;;6.28;1.65;;;;;;;10.64;58.55;98243.59;5024890;28;20037;-73
2024/02/09 11:16:01;;;;;;;3.35;1.20;;;;;;;10.66;58.27;98244.22;5011981;28;20088;-73
2024/02/09 11:18:32;;;;;;;3.20;1.20;;;;;;;10.67;58.06;98248.66;5014142;28;20420;-73
2024/02/09 11:21:01;;;;;;;3.50;1.33;;;;;;;10.68;58.56;98238.56;5026731;28;20056;-73
2024/02/09 11:23:31;;;;;;;3.53;1.20;;;;;;;10.72;58.29;98239.88;5003812;28;20076;-72
2024/02/09 11:25:59;;;;;;;3.28;1.33;;;;;;;10.72;58.09;98237.13;5032174;28;20053;-72
2024/02/09 11:28:27;;;;;;;2.33;1.40;;;;;;;10.73;57.84;98236.91;5029536;28;20045;-73
2024/02/09 11:30:56;;;;;;;3.33;1.20;;;;;;;10.76;57.87;98241.13;5024394;28;20041;-73
2024/02/09 11:33:24;;;;;;;2.72;1.30;;;;;;;10.77;58.31;98237.38;5029384;28;20042;-73
2024/02/09 11:35:53;;;;;;;2.75;1.40;;;;;;;10.80;58.35;98242.44;5012972;28;20042;-73
2024/02/09 11:38:22;;;;;;;2.97;1.25;;;;;;;10.81;58.22;98230.47;5021001;28;20069;-73
2024/02/09 11:40:52;;;;;;;2.25;1.20;;;;;;;10.83;58.19;98240.13;5014037;28;20045;-75
2024/02/09 11:43:20;;;;;;;2.55;1.20;;;;;;;10.84;57.68;98239.09;5015707;28;20045;-75
2024/02/09 11:45:48;;;;;;;3.38;1.45;;;;;;;10.86;58.05;98236.16;5015313;28;20041;-75
2024/02/09 11:48:21;;;;;;;2.63;1.38;;;;;;;10.87;57.56;98235.13;5032541;28;20516;-74
2024/02/09 11:50:49;;;;;;;2.28;1.27;;;;;;;10.89;58.11;98227.56;5037883;28;20095;-74
2024/02/09 11:53:18;;;;;;;2.67;1.20;;;;;;;10.93;57.92;98218.75;5025312;28;20049;-74
2024/02/09 11:55:46;;;;;;;2.85;1.33;;;;;;;10.93;58.01;98221.47;5027215;28;20045;-74
2024/02/09 11:58:15;;;;;;;3.03;1.20;;;;;;;10.94;57.41;98236.00;5015717;28;20049;-74
2024/02/09 12:00:43;;;;;;;3.58;1.30;;;;;;;10.96;57.34;98218.34;5025269;28;20044;-74
2024/02/09 12:03:13;;;;;;;3.25;1.40;;;;;;;10.99;57.43;98228.88;5017586;28;20045;-75
2024/02/09 12:05:45;;;;;;;;;;;;;;;10.73;57.71;98225.97;5013792;28;20033;-75
2024/02/09 12:08:19;;;;;;;1.65;0.88;;;;;;;10.98;57.07;98221.72;4996288;28;20376;-75
2024/02/09 12:10:50;;;;;;;4.03;1.50;;;;;;;11.01;57.48;98222.38;5032968;28;20049;-75
2024/02/09 12:13:19;;;;;;;3.05;1.40;;;;;;;11.03;57.23;98228.50;5031863;28;20092;-75
2024/02/09 12:15:47;;;;;;;3.13;1.33;;;;;;;11.05;57.55;98221.78;5023076;28;20408;-75
2024/02/09 12:18:16;;;;;;;3.75;1.35;;;;;;;11.06;57.00;98223.44;5015143;28;20088;-75
2024/02/09 12:20:44;;;;;;;1.83;1.20;;;;;;;11.07;57.13;98227.88;5032481;28;20356;-74
2024/02/09 12:23:13;;;;;;;2.22;1.17;;;;;;;11.10;57.07;98240.31;5014492;28;20045;-75
2024/02/09 12:25:42;;;;;;;1.92;1.20;;;;;;;11.11;56.54;98234.66;5024955;28;20041;-75
2024/02/09 12:28:19;;;;;;;2.45;1.17;;;;;;;11.13;56.11;98232.56;5029796;28;20144;-75
2024/02/09 12:30:47;;;;;;;2.40;1.20;;;;;;;11.11;56.78;98229.19;5032003;28;20531;-75
2024/02/09 12:33:18;;;;;;;1.83;1.02;;;;;;;11.15;56.42;98237.81;5031185;28;20520;-75
2024/02/09 12:35:50;;;;;;;2.53;0.93;;;;;;;11.14;56.36;98231.50;5011109;28;20068;-75
2024/02/09 12:38:20;;;;;;;3.40;1.30;;;;;;;11.17;56.78;98238.47;4995518;28;20480;-75
2024/02/09 12:40:53;;;;;;;2.17;1.10;;;;;;;11.18;56.71;98238.25;5025731;28;20441;-75
2024/02/09 12:43:21;;;;;;;2.75;1.50;;;;;;;11.17;56.26;98239.31;5016354;28;20059;-75
2024/02/09 12:45:49;;;;;;;3.13;1.35;;;;;;;11.18;56.36;98241.00;5012182;28;20038;-75
2024/02/09 12:48:20;;;;;;;2.78;1.30;;;;;;;11.19;56.68;98239.97;5021191;28;20046;-75
2024/02/09 12:50:52;;;;;;;3.42;1.25;;;;;;;11.19;56.76;98241.84;5017948;28;20074;-75
2024/02/09 12:53:20;;;;;;;4.35;1.52;;;;;;;11.21;56.02;98242.50;5066774;23;20037;-75
2024/02/09 12:55:50;;;;;;;2.95;1.38;;;;;;;11.23;56.32;98238.50;5051946;28;20044;-75
2024/02/09 12:58:20;;;;;;;2.38;1.25;;;;;;;11.23;56.00;98249.44;5034072;28;20056;-75
2024/02/09 13:00:48;;;;;;;4.10;1.42;;;;;;;11.23;56.07;98235.75;5027592;28;20511;-75
2024/02/09 13:03:16;;;;;;;2.92;1.52;;;;;;;11.25;56.00;98243.78;5024323;28;20045;-75
2024/02/09 13:05:44;;;;;;;2.63;1.15;;;;;;;11.26;55.79;98240.00;5022644;28;20425;-75
2024/02/09 13:08:12;;;;;;;4.30;1.48;;;;;;;11.26;56.05;98245.47;5031870;28;20549;-75
2024/02/09 13:10:40;;;;;;;3.03;1.38;;;;;;;11.27;56.25;98241.69;5050398;28;20553;-75
2024/02/09 13:13:11;;;;;;;4.13;1.30;;;;;;;11.29;55.82;98245.91;5044803;28;20428;-77
2024/02/09 13:15:39;;;;;;;2.95;1.27;;;;;;;11.30;55.66;98252.25;5037217;28;20529;-76
2024/02/09 13:18:08;;;;;;;2.83;1.33;;;;;;;11.31;55.77;98248.44;5033786;28;20110;-75
2024/02/09 13:20:37;;;;;;;3.55;1.40;;;;;;;11.32;55.62;98250.13;5033805;28;20041;-76
2024/02/09 13:23:05;;;;;;;2.60;1.13;;;;;;;11.33;55.64;98249.09;5025737;28;20517;-72
2024/02/09 13:25:35;;;;;;;2.63;1.30;;;;;;;11.34;55.72;98248.88;5045364;28;20049;-72
2024/02/09 13:28:06;;;;;;;2.30;1.25;;;;;;;11.36;55.68;98246.78;5047691;28;20052;-72
2024/02/09 13:30:36;;;;;;;2.25;1.08;;;;;;;11.37;55.65;98233.94;5044410;28;20103;-72
2024/02/09 13:33:05;;;;;;;3.05;1.35;;;;;;;11.38;55.90;98234.81;5036942;28;20123;-72
2024/02/09 13:35:33;;;;;;;3.08;1.40;;;;;;;11.38;55.53;98238.38;5054384;28;20106;-72
2024/02/09 13:38:01;;;;;;;2.72;1.20;;;;;;;11.39;56.10;98233.75;5046645;28;20080;-72